Time;durP1;ratioP1;P1;durP2;ratioP2;P2;SDS_P1;SDS_P2;PMS_P1;PMS_P2;Temp;Humidity;BMP_temperature;BMP_pressure;BME280_temperature;BME280_humidity;BME280_pressure;Samples;Min_cycle;Max_cycle;Signal;HPM_P1;HPM_P2
2022/12/26 00:01:23;;;;;;;3.40;2.42;;;11.80;78.20;;;14.62;48.37;97541.81;5042853;28;20051;-54
2022/12/26 00:03:51;;;;;;;5.05;2.45;;;11.80;78.20;;;14.61;48.23;97550.88;5042574;28;20050;-54
2022/12/26 00:06:24;;;;;;;4.32;2.88;;;11.80;78.00;;;14.62;48.40;97550.69;5042637;28;20042;-56
2022/12/26 00:08:53;;;;;;;3.97;2.73;;;11.80;78.00;;;14.65;48.48;97550.28;5042636;28;20059;-55
2022/12/26 00:11:22;;;;;;;3.17;2.22;;;11.80;78.20;;;14.69;48.38;97562.28;5043097;28;20344;-55
2022/12/26 00:13:59;;;;;;;4.27;2.67;;;11.80;78.40;;;14.72;48.27;97559.25;5042468;28;20063;-52
2022/12/26 00:16:28;;;;;;;3.53;1.95;;;11.80;78.40;;;14.72;48.37;97559.25;5041715;28;20050;-56
2022/12/26 00:18:56;;;;;;;3.72;2.42;;;11.70;78.80;;;14.72;48.38;97561.91;5041798;28;20056;-55
2022/12/26 00:21:26;;;;;;;3.35;2.40;;;11.70;79.10;;;14.73;48.35;97555.56;5042034;28;20053;-55
2022/12/26 00:23:56;;;;;;;4.75;2.50;;;11.70;79.40;;;14.78;48.32;97552.28;5042087;28;20054;-52
2022/12/26 00:26:27;;;;;;;3.33;2.40;;;11.80;79.20;;;14.79;48.21;97561.16;5042528;28;20045;-52
2022/12/26 00:28:56;;;;;;;5.90;3.45;;;11.80;79.00;;;14.77;48.19;97564.03;5042306;28;20053;-53
2022/12/26 00:31:31;;;;;;;4.35;2.45;;;11.70;78.90;;;14.76;48.31;97562.38;5041380;28;20356;-52
2022/12/26 00:33:59;;;;;;;3.92;2.30;;;11.80;78.90;;;14.70;48.25;97549.75;5042090;28;20271;-54
2022/12/26 00:36:31;;;;;;;3.23;2.20;;;11.70;78.90;;;14.66;48.44;97560.00;5042829;28;20057;-53
2022/12/26 00:39:01;;;;;;;4.78;2.60;;;11.70;79.00;;;14.61;48.48;97569.63;5042189;28;20057;-54
2022/12/26 00:41:29;;;;;;;4.73;2.53;;;11.60;79.10;;;14.57;48.39;97558.44;5042470;28;20045;-53
2022/12/26 00:43:58;;;;;;;3.77;2.47;;;11.60;79.20;;;14.53;48.55;97551.78;5024558;28;20041;-55
2022/12/26 00:46:27;;;;;;;3.13;2.63;;;11.60;79.40;;;14.47;48.70;97555.22;5042053;28;20233;-53
2022/12/26 00:48:55;;;;;;;3.10;2.60;;;11.60;79.70;;;14.46;48.73;97558.91;5042034;28;20375;-55
2022/12/26 00:51:23;;;;;;;4.28;3.05;;;11.50;79.60;;;14.41;48.99;97564.84;5040952;28;20052;-55
2022/12/26 00:53:51;;;;;;;4.27;2.90;;;11.50;79.80;;;14.43;48.83;97565.47;5040847;28;20053;-52
2022/12/26 00:56:18;;;;;;;5.03;2.80;;;11.50;80.10;;;14.41;48.96;97569.38;5042433;28;20046;-54
2022/12/26 00:58:46;;;;;;;3.92;2.78;;;11.50;80.20;;;14.41;48.97;97570.19;5041868;28;20051;-52
2022/12/26 01:01:17;;;;;;;3.90;2.97;;;11.50;80.40;;;14.40;48.88;97560.47;5041554;28;20049;-54
2022/12/26 01:03:46;;;;;;;4.90;2.87;;;11.50;80.30;;;14.40;48.85;97559.66;5041566;28;20041;-53
2022/12/26 01:06:15;;;;;;;4.47;3.13;;;11.50;80.40;;;14.36;49.01;97551.16;5041942;28;20243;-53
2022/12/26 01:08:43;;;;;;;3.97;2.97;;;11.40;80.40;;;14.32;48.92;97558.75;5024737;28;20045;-54
2022/12/26 01:11:13;;;;;;;4.68;2.80;;;11.40;80.70;;;14.30;49.12;97560.78;5042184;28;20076;-55
2022/12/26 01:13:42;;;;;;;4.73;2.80;;;11.30;80.70;;;14.27;49.21;97552.28;5037204;28;20045;-54
2022/12/26 01:16:11;;;;;;;4.87;2.80;;;11.40;80.70;;;14.26;49.19;97558.66;5040782;28;20045;-55
2022/12/26 01:18:39;;;;;;;4.90;3.50;;;11.30;80.80;;;14.25;49.17;97551.63;5041662;28;20374;-55
2022/12/26 01:21:09;;;;;;;5.57;2.97;;;11.30;81.00;;;14.23;49.30;97556.34;5041777;28;20042;-56
2022/12/26 01:23:37;;;;;;;3.93;2.63;;;11.30;80.80;;;14.20;49.30;97557.56;5040495;28;20042;-54
2022/12/26 01:26:05;;;;;;;4.83;3.40;;;11.30;80.80;;;14.15;49.17;97552.78;5033676;28;20041;-55
2022/12/26 01:28:51;;;;;;;4.07;3.17;;;11.30;81.00;;;14.13;49.51;97546.78;5041718;28;20063;-53
2022/12/26 01:31:20;;;;;;;5.43;3.13;;;11.20;81.10;;;14.12;49.38;97552.31;5041850;28;20045;-52
2022/12/26 01:33:48;;;;;;;5.70;2.65;;;11.30;81.40;;;14.09;49.51;97552.69;5045246;28;20041;-54
2022/12/26 01:36:17;;;;;;;4.50;3.23;;;11.20;81.30;;;14.06;49.51;97550.38;5046233;28;20060;-53
2022/12/26 01:38:45;;;;;;;3.63;2.70;;;11.20;81.40;;;14.04;49.68;97566.63;5045505;28;20056;-55
2022/12/26 01:41:16;;;;;;;3.40;2.93;;;11.20;81.50;;;14.01;49.59;97572.34;5045068;28;20059;-52
2022/12/26 01:44:02;;;;;;;4.20;3.13;;;11.10;81.80;;;14.01;49.53;97561.63;5045190;28;20038;-54
2022/12/26 01:46:44;;;;;;;4.53;3.00;;;11.00;82.50;;;14.01;49.61;97563.47;5045497;28;20041;-52
2022/12/26 01:49:26;;;;;;;4.77;3.03;;;10.90;82.90;;;13.99;49.74;97572.50;5038210;28;20091;-54
2022/12/26 01:52:05;;;;;;;4.20;3.10;;;10.90;82.80;;;13.95;49.81;97576.56;5044517;28;20048;-52
2022/12/26 01:54:37;;;;;;;4.33;2.90;;;10.90;83.30;;;13.95;49.88;97568.56;5044327;28;20362;-52
2022/12/26 01:57:19;;;;;;;5.53;3.07;;;10.90;83.50;;;13.98;49.78;97567.38;5036736;28;20053;-52
2022/12/26 01:59:49;;;;;;;6.00;3.60;;;10.90;83.50;;;13.95;49.77;97571.22;5044051;28;20049;-51
2022/12/26 02:02:21;;;;;;;4.70;2.83;;;10.90;83.30;;;13.95;50.07;97575.75;5043825;28;20045;-54
2022/12/26 02:07:42;;;;;;;4.60;3.10;;;10.90;83.40;;;13.92;49.84;97574.28;5045046;28;20251;-54
2022/12/26 02:10:19;;;;;;;4.38;2.92;;;10.90;83.60;;;13.93;49.97;97565.22;5036003;28;20049;-53
2022/12/26 02:12:48;;;;;;;4.40;3.10;;;10.90;83.60;;;13.90;49.93;97565.63;5044404;28;20100;-52
2022/12/26 02:15:17;;;;;;;3.57;2.60;;;11.00;83.30;;;13.85;50.10;97568.00;5043868;28;20051;-53
2022/12/26 02:17:46;;;;;;;4.23;3.00;;;10.90;83.30;;;13.85;50.11;97564.50;5043587;28;20059;-51
2022/12/26 02:20:27;;;;;;;3.87;3.17;;;10.90;83.40;;;13.85;50.27;97568.00;5027057;28;20450;-55
2022/12/26 02:23:23;;;;;;;5.90;2.77;;;10.90;83.60;;;13.85;50.26;97568.00;5044417;28;20045;-53
2022/12/26 02:26:16;;;;;;;3.93;2.73;;;11.00;83.50;;;13.91;50.07;97559.22;5044787;28;20243;-52
2022/12/26 02:29:10;;;;;;;4.23;2.87;;;11.00;83.30;;;13.92;50.15;97565.41;5040947;28;20056;-51
2022/12/26 02:32:10;;;;;;;3.43;2.47;;;11.10;83.00;;;13.95;50.19;97575.75;5043370;28;20112;-54
2022/12/26 02:35:18;;;;;;;3.67;3.07;;;11.10;83.00;;;13.99;50.32;97585.06;5040275;28;20053;-52
2022/12/26 02:38:20;;;;;;;3.60;3.00;;;11.10;83.00;;;14.04;50.06;97587.22;5040726;28;20041;-53
2022/12/26 02:41:09;;;;;;;3.30;2.43;;;11.20;83.10;;;14.06;50.12;97579.84;5044049;28;20037;-55
2022/12/26 02:47:30;;;;;;;3.60;2.60;;;11.20;82.90;;;14.04;50.02;97589.91;5043242;28;20049;-53
2022/12/26 03:15:11;;;;;;;5.60;3.03;;;11.00;83.50;;;13.98;50.06;97573.53;5043001;28;20048;-55
2022/12/26 03:17:51;;;;;;;4.47;2.50;;;11.00;83.30;;;13.98;50.10;97575.41;5042239;28;20233;-52
2022/12/26 03:20:28;;;;;;;5.07;2.70;;;11.00;83.60;;;13.96;50.07;97575.56;5035741;28;20064;-52
2022/12/26 03:22:58;;;;;;;3.53;2.20;;;11.00;83.60;;;13.95;49.96;97562.38;5043328;28;20247;-54
2022/12/26 03:28:22;;;;;;;3.73;2.60;;;11.00;83.60;;;13.94;50.26;97560.72;5036849;28;20048;-54
2022/12/26 03:30:51;;;;;;;4.07;2.10;;;11.00;83.60;;;13.95;49.99;97543.63;5025461;28;20049;-54
2022/12/26 03:36:43;;;;;;;3.27;2.70;;;11.10;83.40;;;13.94;50.37;97542.00;5035875;28;20052;-54
2022/12/26 04:19:22;;;;;;;5.03;3.10;;;11.00;83.40;;;13.97;50.23;97538.94;5042446;28;20347;-52
2022/12/26 04:20:04;;;;;;;4.57;2.43;;;11.20;83.70;;;14.29;49.98;97574.38;5036239;28;20045;-53
2022/12/26 04:46:44;;;;;;;5.37;2.80;;;11.30;83.50;;;14.36;49.99;97565.41;5041203;28;20361;-53
2022/12/26 04:52:06;;;;;;;4.32;2.58;;;11.40;83.40;;;14.36;49.99;97552.00;5041976;28;20049;-53
2022/12/26 04:54:34;;;;;;;3.57;2.40;;;11.40;83.00;;;14.34;49.89;97547.84;5040965;28;20051;-52
2022/12/26 04:57:04;;;;;;;4.37;2.53;;;11.40;82.80;;;14.31;50.09;97546.38;5040982;28;20366;-52
2022/12/26 04:59:33;;;;;;;7.07;4.10;;;11.40;82.80;;;14.29;50.02;97548.41;5042022;28;20053;-60
2022/12/26 05:10:28;;;;;;;3.73;2.53;;;11.30;83.20;;;14.20;50.19;97554.06;5040964;28;20052;-60
2022/12/26 05:12:55;;;;;;;4.20;2.80;;;11.20;83.10;;;14.17;50.01;97552.56;5040775;28;20364;-60
2022/12/26 05:15:23;;;;;;;3.03;2.10;;;11.20;83.00;;;14.14;50.19;97561.00;5042082;28;20049;-60
2022/12/26 05:29:06;;;;;;;4.60;2.07;;;11.30;83.90;;;14.34;50.18;97561.22;5038219;28;20045;-60
2022/12/26 05:31:34;;;;;;;2.70;2.00;;;11.30;84.00;;;14.37;50.07;97566.22;5041414;28;20053;-60
2022/12/26 05:34:09;;;;;;;2.87;2.23;;;11.40;83.90;;;14.41;50.12;97564.00;5040296;28;20038;-60
2022/12/26 05:36:43;;;;;;;2.92;2.10;;;11.40;83.80;;;14.43;49.80;97557.44;5041781;28;20042;-60
2022/12/26 05:39:11;;;;;;;4.40;2.20;;;11.40;83.50;;;14.42;50.05;97561.13;5024402;28;20355;-60
2022/12/26 05:41:39;;;;;;;3.33;2.00;;;11.40;83.40;;;14.40;49.96;97571.19;5041273;28;20052;-60
2022/12/26 05:44:08;;;;;;;3.50;2.60;;;11.40;83.60;;;14.41;50.03;97580.09;5041394;28;20255;-60
2022/12/26 05:46:38;;;;;;;3.05;2.38;;;11.40;83.50;;;14.41;49.75;97582.75;5041459;28;20041;-60
2022/12/26 05:49:06;;;;;;;5.10;2.50;;;11.40;83.30;;;14.40;50.03;97576.56;5040440;28;20048;-60
2022/12/26 05:51:34;;;;;;;3.75;1.90;;;11.40;83.20;;;14.40;49.90;97565.84;5041444;28;20269;-60
2022/12/26 05:54:03;;;;;;;2.40;2.00;;;11.40;83.30;;;14.41;50.14;97562.16;5040280;28;20053;-60
2022/12/26 05:56:31;;;;;;;4.90;2.40;;;11.50;83.30;;;14.40;50.05;97565.00;5040368;28;20252;-60
2022/12/26 05:59:00;;;;;;;3.07;2.00;;;11.50;83.40;;;14.41;50.00;97564.84;5040625;28;20063;-60
2022/12/26 06:01:28;;;;;;;5.55;2.28;;;11.40;83.50;;;14.40;50.23;97568.50;5039450;28;20045;-60
2022/12/26 06:03:58;;;;;;;3.10;2.40;;;11.40;83.30;;;14.41;50.09;97575.53;5041177;28;20047;-60
2022/12/26 06:06:27;;;;;;;3.93;2.33;;;11.30;83.90;;;14.42;50.20;97579.03;5040331;28;20340;-60
2022/12/26 06:08:56;;;;;;;5.30;1.90;;;11.40;83.90;;;14.42;50.07;97576.38;5039953;28;20045;-60
2022/12/26 06:11:25;;;;;;;3.63;2.23;;;11.40;84.00;;;14.42;50.04;97579.88;5040129;28;20073;-60
2022/12/26 06:13:54;;;;;;;3.60;1.90;;;11.40;84.10;;;14.43;50.37;97572.69;5041099;28;20087;-60
2022/12/26 06:16:22;;;;;;;3.13;2.10;;;11.40;84.30;;;14.46;50.10;97573.16;5032398;28;20038;-60
2022/12/26 06:18:50;;;;;;;3.37;2.43;;;11.40;84.20;;;14.49;50.07;97569.25;5043534;28;20037;-60
2022/12/26 06:21:19;;;;;;;3.10;2.10;;;11.40;84.30;;;14.50;50.08;97576.25;5044511;28;20041;-60
2022/12/26 06:23:49;;;;;;;4.97;2.43;;;11.40;84.20;;;14.48;49.98;97573.78;5043576;28;20037;-60
2022/12/26 06:26:16;;;;;;;2.42;1.80;;;11.40;84.30;;;14.47;49.97;97577.47;5043535;28;20244;-60
2022/12/26 06:28:45;;;;;;;3.05;2.00;;;11.30;84.30;;;14.48;50.07;97579.16;5044612;28;20047;-60
2022/12/26 06:31:20;;;;;;;3.37;2.77;;;11.30;84.40;;;14.50;50.04;97570.91;5044187;28;20089;-52
2022/12/26 06:33:56;;;;;;;3.23;2.13;;;11.30;84.50;;;14.48;49.97;97565.75;5044439;28;20045;-54
2022/12/26 06:36:26;;;;;;;4.60;2.43;;;11.30;84.50;;;14.46;50.15;97569.63;5035889;28;20053;-56
2022/12/26 06:38:55;;;;;;;3.30;2.20;;;11.30;84.50;;;14.43;50.02;97568.16;5044425;28;20045;-54
2022/12/26 06:41:24;;;;;;;4.27;2.40;;;11.30;84.80;;;14.43;50.03;97565.47;5044431;28;20049;-55
2022/12/26 06:43:52;;;;;;;7.30;2.63;;;11.20;84.70;;;14.44;50.13;97561.75;5044265;28;20037;-55
2022/12/26 06:46:23;;;;;;;4.20;2.90;;;11.30;85.10;;;14.48;50.04;97564.91;5044227;28;20037;-56
2022/12/26 06:48:52;;;;;;;3.33;2.30;;;11.30;85.00;;;14.48;50.16;97572.94;5044432;28;20046;-53
2022/12/26 06:51:27;;;;;;;3.67;2.40;;;11.30;85.10;;;14.47;50.10;97573.97;5043356;28;20272;-54
2022/12/26 06:53:55;;;;;;;3.50;2.13;;;11.30;85.20;;;14.47;50.10;97576.66;5044126;28;20041;-55
2022/12/26 06:56:26;;;;;;;3.40;2.43;;;11.30;85.30;;;14.51;50.18;97591.31;5044839;28;20045;-52
2022/12/26 06:59:05;;;;;;;4.15;2.00;;;11.40;85.30;;;14.52;50.25;97585.78;5042716;28;20045;-53
2022/12/26 07:01:34;;;;;;;3.03;2.23;;;11.40;85.00;;;14.53;50.10;97583.94;5036102;28;20049;-54
2022/12/26 07:04:03;;;;;;;4.80;2.40;;;11.40;85.20;;;14.52;50.20;97588.47;5042685;28;20268;-55
2022/12/26 07:06:36;;;;;;;3.23;2.10;;;11.40;85.10;;;14.50;50.35;97592.31;5042604;28;20068;-55
2022/12/26 07:09:11;;;;;;;3.30;2.13;;;11.40;85.50;;;14.51;50.41;97602.84;5044144;28;20168;-54
2022/12/26 07:11:43;;;;;;;19.58;13.27;;;11.40;85.70;;;14.52;50.46;97595.66;5043813;28;20278;-51
2022/12/26 07:14:11;;;;;;;5.32;3.80;;;11.50;85.60;;;14.52;50.45;97601.84;5043527;28;20255;-50
2022/12/26 07:16:41;;;;;;;5.65;3.35;;;11.50;85.50;;;14.52;50.60;97587.59;5043967;28;20037;-55
2022/12/26 07:19:12;;;;;;;4.85;4.15;;;11.50;85.30;;;14.54;50.70;97585.59;5042740;28;20291;-54
2022/12/26 07:21:41;;;;;;;4.50;3.10;;;11.50;85.70;;;14.56;50.74;97586.25;5042292;28;20045;-55
2022/12/26 07:24:18;;;;;;;5.20;2.60;;;11.50;86.00;;;14.57;50.67;97594.09;5043049;28;20046;-52
2022/12/26 07:26:48;;;;;;;3.15;1.90;;;11.60;85.90;;;14.56;50.72;97591.59;5043857;28;20044;-60
2022/12/26 07:29:16;;;;;;;3.65;2.17;;;11.50;86.30;;;14.55;50.77;97601.47;5042389;28;20250;-60
2022/12/26 07:31:44;;;;;;;3.80;2.38;;;11.50;86.60;;;14.58;50.76;97600.31;5041845;28;20041;-60
2022/12/26 07:34:12;;;;;;;4.43;3.00;;;11.50;86.80;;;14.59;50.71;97610.00;5041723;28;20050;-60
2022/12/26 07:36:40;;;;;;;5.73;2.40;;;11.50;86.80;;;14.61;50.92;97599.09;5042438;28;20045;-60
2022/12/26 07:39:11;;;;;;;9.80;2.80;;;11.50;86.80;;;14.62;50.97;97600.75;5043447;28;20049;-60
2022/12/26 07:41:56;;;;;;;3.17;2.47;;;11.60;86.80;;;14.57;50.95;97601.31;5043292;28;20042;-60
2022/12/26 07:44:30;;;;;;;3.33;2.30;;;11.50;86.80;;;14.64;50.70;97602.22;5042877;28;20255;-60
2022/12/26 07:46:59;;;;;;;2.87;2.10;;;11.60;86.80;;;14.65;50.70;97614.59;5041881;28;20340;-60
2022/12/26 07:49:27;;;;;;;3.40;2.57;;;11.60;86.70;;;14.65;50.74;97603.88;5035572;28;20294;-60
2022/12/26 07:51:55;;;;;;;5.37;3.00;;;11.60;86.60;;;14.66;50.92;97600.19;5042944;28;20041;-60
2022/12/26 07:54:22;;;;;;;4.67;2.57;;;11.60;86.80;;;14.66;50.85;97605.56;5043411;28;20352;-60
2022/12/26 07:56:50;;;;;;;3.00;2.33;;;11.60;87.70;;;14.69;50.93;97607.00;5043094;28;20343;-60
2022/12/26 07:59:18;;;;;;;3.43;2.47;;;11.60;87.20;;;14.68;50.89;97611.56;5025427;28;20045;-60
2022/12/26 08:01:46;;;;;;;2.83;2.30;;;11.60;87.40;;;14.68;50.97;97611.56;5042706;28;20537;-60
2022/12/26 08:04:14;;;;;;;4.00;2.70;;;11.50;87.60;;;14.66;50.92;97618.13;5042498;28;20051;-60
2022/12/26 08:06:42;;;;;;;4.40;2.30;;;11.50;88.00;;;14.65;50.93;97614.59;5042651;28;20045;-60
2022/12/26 08:09:16;;;;;;;3.63;2.20;;;11.50;88.30;;;14.66;50.88;97623.47;5042914;28;20267;-60
2022/12/26 08:11:44;;;;;;;3.67;2.30;;;11.50;89.20;;;14.64;50.90;97628.19;5042639;28;20040;-60
2022/12/26 08:14:15;;;;;;;8.97;4.10;;;11.50;88.10;;;14.61;51.06;97631.25;5042079;28;20053;-60
2022/12/26 08:16:44;;;;;;;4.75;2.47;;;11.50;88.50;;;14.61;51.23;97634.75;5042834;28;20244;-60
2022/12/26 08:19:19;;;;;;;4.17;2.93;;;11.50;88.60;;;14.65;51.05;97624.50;5041717;28;20045;-60
2022/12/26 08:21:47;;;;;;;6.67;2.70;;;11.60;88.00;;;14.64;51.01;97631.72;5042621;28;20049;-60
2022/12/26 08:24:15;;;;;;;5.90;4.40;;;11.60;87.80;;;14.67;50.94;97628.63;5042102;28;20055;-60
2022/12/26 08:26:43;;;;;;;4.27;2.63;;;11.60;87.70;;;14.66;51.11;97639.56;5042675;28;20044;-60
2022/12/26 08:29:11;;;;;;;4.77;2.70;;;11.50;88.10;;;14.67;51.03;97647.38;5041380;28;20047;-60
2022/12/26 08:31:39;;;;;;;3.63;2.63;;;11.60;88.10;;;14.70;51.00;97659.59;5041459;28;20041;-60
2022/12/26 08:34:08;;;;;;;4.17;2.50;;;11.50;88.30;;;14.68;50.96;97667.81;5041955;28;20053;-60
2022/12/26 08:36:36;;;;;;;4.87;2.00;;;11.60;87.90;;;14.67;50.92;97673.34;5042536;28;20048;-60
2022/12/26 08:39:04;;;;;;;3.30;2.17;;;11.60;87.80;;;14.66;50.77;97680.56;5042261;28;20050;-60
2022/12/26 08:41:32;;;;;;;3.53;2.53;;;11.60;87.70;;;14.67;51.11;97695.63;5041883;28;20047;-60
2022/12/26 08:44:00;;;;;;;6.93;4.60;;;11.60;87.90;;;14.66;51.27;97702.00;5042168;28;20235;-60
2022/12/26 08:46:49;;;;;;;3.60;3.05;;;11.60;88.70;;;14.65;51.69;97715.59;5041558;28;20049;-60
2022/12/26 08:49:17;;;;;;;3.90;2.93;;;11.50;90.20;;;14.57;51.93;97730.72;5040932;28;20056;-60
2022/12/26 08:51:45;;;;;;;3.57;2.80;;;11.40;92.00;;;14.53;51.96;97729.41;5042581;28;20053;-60
2022/12/26 08:54:13;;;;;;;4.73;3.67;;;11.40;94.00;;;14.51;52.34;97735.97;5040743;28;20045;-60
2022/12/26 08:56:40;;;;;;;4.00;3.33;;;11.20;96.20;;;14.44;52.99;97735.84;5042518;28;20271;-60
2022/12/26 08:59:08;;;;;;;5.00;3.10;;;11.20;99.50;;;14.38;53.05;97742.81;5041956;28;20368;-60
2022/12/26 09:01:37;;;;;;;4.93;3.03;;;11.10;99.90;;;14.34;53.22;97746.00;5042250;28;20067;-60
2022/12/26 09:04:06;;;;;;;3.87;2.83;;;11.10;99.90;;;14.32;53.43;97742.69;5041600;28;20045;-60
2022/12/26 09:06:36;;;;;;;4.43;3.30;;;11.00;99.90;;;14.29;54.12;97733.19;5042088;28;20223;-60
2022/12/26 09:09:07;;;;;;;4.37;3.97;;;11.00;99.90;;;14.28;54.07;97742.22;5040866;28;20037;-60
2022/12/26 09:11:36;;;;;;;5.25;3.47;;;11.00;99.90;;;14.27;54.21;97731.69;5040897;28;20092;-60
2022/12/26 09:14:06;;;;;;;4.53;4.00;;;10.90;99.90;;;14.25;54.44;97744.41;5041671;28;20052;-60
2022/12/26 09:16:45;;;;;;;6.13;4.30;;;11.00;99.90;;;14.24;54.48;97742.78;5040831;28;20049;-60
2022/12/26 09:19:20;;;;;;;5.95;3.92;;;10.90;99.90;;;14.25;54.71;97752.47;5041889;28;20059;-60
2022/12/26 09:22:49;;;;;;;5.73;3.50;;;10.90;99.90;;;14.24;54.82;97754.31;5040681;28;20045;-60
2022/12/26 09:24:37;;;;;;;6.67;4.27;;;11.00;99.90;;;14.25;55.21;97764.03;5034391;28;20347;-60
2022/12/26 09:27:05;;;;;;;5.30;3.60;;;11.00;99.90;;;14.26;55.27;97765.66;5042576;28;20336;-60
2022/12/26 09:29:33;;;;;;;5.00;3.30;;;11.00;99.90;;;14.26;55.66;97770.19;5033866;28;20049;-60
2022/12/26 09:32:01;;;;;;;8.77;3.77;;;11.00;99.90;;;14.24;56.07;97764.19;5040861;28;20075;-60
2022/12/26 09:34:29;;;;;;;4.60;3.23;;;11.10;99.90;;;13.85;58.33;97775.91;5040777;28;20094;-60
2022/12/26 09:36:56;;;;;;;4.60;3.10;;;10.90;99.90;;;13.61;59.36;97775.06;5041728;28;20047;-60
2022/12/26 09:39:24;;;;;;;5.40;3.30;;;10.80;99.90;;;13.62;59.57;97771.38;5041692;28;20049;-60
2022/12/26 09:42:30;;;;;;;5.67;4.20;;;10.80;99.90;;;13.72;59.62;97793.34;5040342;28;20328;-60
2022/12/26 09:45:18;;;;;;;3.97;2.77;;;10.80;99.90;;;13.46;60.82;97800.91;5043325;28;20061;-60
2022/12/26 09:48:19;;;;;;;2.67;2.07;;;10.80;99.90;;;13.52;59.97;97803.69;5034250;28;20045;-60
2022/12/26 09:50:50;;;;;;;2.70;1.97;;;10.80;99.90;;;13.62;59.52;97792.75;5035375;28;20045;-60
2022/12/26 09:53:32;;;;;;;3.03;1.77;;;10.90;99.90;;;13.28;61.03;97806.44;5042849;28;20045;-60
2022/12/26 09:56:13;;;;;;;2.87;1.87;;;10.80;99.90;;;13.24;60.44;97806.00;5044280;28;20071;-60
2022/12/26 09:59:12;;;;;;;2.07;1.30;;;10.80;99.90;;;12.68;62.30;97814.03;5040094;28;20049;-60
2022/12/26 10:01:41;;;;;;;2.37;1.70;;;10.60;99.90;;;12.88;61.64;97817.13;5037058;28;20038;-60
2022/12/26 10:04:27;;;;;;;3.08;1.90;;;10.60;99.90;;;12.76;61.82;97816.66;5043626;28;20322;-60
2022/12/26 10:07:36;;;;;;;2.03;1.50;;;10.50;99.90;;;12.90;61.38;97787.59;5044147;28;20044;-60
2022/12/26 10:10:18;;;;;;;2.27;1.90;;;10.50;99.90;;;13.15;60.45;97785.66;5051928;28;20061;-60
2022/12/26 10:12:57;;;;;;;4.30;1.60;;;10.60;99.90;;;13.37;59.73;97784.88;5037143;28;20042;-60
2022/12/26 10:15:48;;;;;;;2.93;1.80;;;10.70;99.90;;;13.15;60.36;97786.47;5044082;28;20045;-60
2022/12/26 10:18:53;;;;;;;2.87;1.73;;;10.60;99.90;;;13.16;60.73;97782.81;5043905;28;20056;-60
2022/12/26 10:21:36;;;;;;;1.50;1.07;;;10.70;99.90;;;13.33;59.78;97780.88;5044349;28;20050;-60
2022/12/26 10:24:26;;;;;;;2.53;1.27;;;10.70;99.90;;;13.22;60.03;97793.78;5044653;28;20048;-60
2022/12/26 10:27:11;;;;;;;2.57;1.20;;;10.70;99.90;;;13.16;60.54;97797.97;5038497;28;20047;-60
2022/12/26 10:29:55;;;;;;;1.20;1.10;;;10.70;99.90;;;13.14;60.41;97805.34;5020571;28;20050;-60
2022/12/26 10:32:48;;;;;;;1.50;1.30;;;10.70;99.90;;;13.31;59.92;97804.28;5042277;28;20049;-60
2022/12/26 10:35:37;;;;;;;1.97;1.30;;;10.70;99.90;;;13.50;59.41;97791.50;5045190;28;20067;-59
2022/12/26 10:38:32;;;;;;;1.57;1.20;;;10.70;99.90;;;13.45;59.51;97807.25;5044704;28;20064;-60
2022/12/26 10:41:16;;;;;;;1.30;1.10;;;10.70;99.90;;;13.30;59.91;97816.00;5039601;28;20061;-60
2022/12/26 10:43:44;;;;;;;1.40;0.88;;;10.50;99.90;;;13.12;60.27;97813.53;5036129;28;20045;-60
2022/12/26 10:46:29;;;;;;;1.70;1.00;;;10.50;99.90;;;13.06;60.26;97818.75;5043212;28;20041;-60
2022/12/26 10:48:58;;;;;;;1.90;1.00;;;10.50;99.90;;;13.10;60.34;97812.88;5043436;28;20190;-60
2022/12/26 10:51:26;;;;;;;3.80;1.90;;;10.50;99.90;;;13.33;59.33;97820.16;5043108;28;20045;-60
2022/12/26 10:53:54;;;;;;;3.47;2.37;;;10.50;99.90;;;13.43;59.42;97810.09;5042922;28;20041;-60
2022/12/26 10:56:25;;;;;;;3.63;1.80;;;10.50;99.90;;;13.48;59.39;97815.75;5044276;28;20052;-60
2022/12/26 10:59:03;;;;;;;2.90;1.70;;;10.60;99.90;;;13.34;60.07;97809.31;5044291;28;20055;-60
2022/12/26 11:01:36;;;;;;;3.03;1.90;;;10.60;99.90;;;13.52;59.33;97808.22;5042938;28;20049;-60
2022/12/26 11:04:15;;;;;;;3.90;2.03;;;10.60;99.90;;;13.62;59.34;97802.63;5042650;28;20038;-60
2022/12/26 11:06:53;;;;;;;;;;;10.70;99.90;;;13.69;58.91;97801.75;5036757;28;20056;-60
2022/12/26 11:09:41;;;;;;;4.20;2.33;;;10.70;99.90;;;13.73;58.70;97796.88;5044792;28;19921;-60
2022/12/26 11:12:21;;;;;;;2.80;1.77;;;10.70;99.90;;;13.72;58.99;97782.66;5043720;28;20355;-60
2022/12/26 11:14:58;;;;;;;2.33;1.33;;;10.70;99.90;;;13.79;58.77;97780.13;5043097;28;20045;-59
2022/12/26 11:17:34;;;;;;;2.87;1.60;;;10.70;99.90;;;13.85;58.70;97771.38;5042932;28;20042;-60
2022/12/26 11:20:26;;;;;;;2.53;1.90;;;10.80;99.90;;;13.88;58.48;97760.31;5042693;28;20052;-60
2022/12/26 11:23:11;;;;;;;3.37;1.93;;;10.80;99.90;;;13.91;58.38;97749.25;5037533;28;20045;-59
2022/12/26 11:25:55;;;;;;;2.00;1.40;;;10.80;99.90;;;13.97;58.32;97743.16;5042865;28;20033;-60
2022/12/26 11:28:35;;;;;;;2.85;1.65;;;10.90;99.90;;;14.04;58.19;97758.53;5042650;28;20054;-60
2022/12/26 11:31:06;;;;;;;1.67;1.23;;;10.90;99.90;;;14.09;57.88;97770.31;5038617;28;20052;-60
2022/12/26 11:33:43;;;;;;;3.17;1.30;;;11.00;99.90;;;14.08;57.97;97770.53;5042297;28;20041;-60
2022/12/26 11:36:14;;;;;;;2.93;1.60;;;11.00;99.90;;;14.12;58.04;97761.94;5042567;28;20063;-60
2022/12/26 11:39:00;;;;;;;7.43;4.13;;;11.00;99.90;;;14.15;57.56;97768.78;5035756;28;20052;-60
2022/12/26 11:41:30;;;;;;;2.67;2.17;;;11.00;99.90;;;14.20;57.50;97774.44;5042090;28;20055;-59
2022/12/26 11:44:09;;;;;;;3.00;1.30;;;11.10;99.90;;;14.23;57.56;97786.63;5043064;28;20045;-60
2022/12/26 11:47:00;;;;;;;2.10;1.50;;;11.20;99.90;;;14.25;57.52;97777.41;5043368;28;20063;-60
2022/12/26 11:49:51;;;;;;;1.73;0.80;;;11.20;99.90;;;14.23;57.09;97766.06;5042335;28;20248;-55
2022/12/26 11:52:54;;;;;;;4.27;1.70;;;11.20;99.90;;;14.13;57.34;97776.16;5042568;28;20049;-54
2022/12/26 11:55:22;;;;;;;2.80;1.43;;;11.20;99.90;;;14.14;57.03;97781.34;5041743;28;20312;-55
2022/12/26 11:58:08;;;;;;;1.15;0.80;;;11.10;99.90;;;14.15;57.12;97768.78;5043317;28;20252;-54
2022/12/26 12:00:39;;;;;;;1.53;0.80;;;11.20;99.90;;;14.23;56.85;97766.06;5042994;28;20049;-56
2022/12/26 12:03:13;;;;;;;2.60;0.90;;;11.20;99.90;;;14.26;56.19;97746.09;5041458;28;20055;-53
2022/12/26 12:06:29;;;;;;;0.90;0.63;;;11.20;99.90;;;14.19;56.35;97751.38;5033889;28;20042;-56
2022/12/26 12:09:40;;;;;;;1.50;0.67;;;11.20;99.90;;;14.28;56.32;97750.25;5036565;28;20049;-52
2022/12/26 12:12:20;;;;;;;2.22;0.90;;;11.20;99.90;;;14.35;55.92;97753.06;5026858;28;20060;-55
2022/12/26 12:15:00;;;;;;;1.98;1.08;;;11.30;99.90;;;14.40;55.91;97760.53;5033881;28;20041;-56
2022/12/26 12:17:49;;;;;;;1.97;0.90;;;11.40;99.90;;;14.45;55.93;97750.09;5042642;28;20232;-56
2022/12/26 12:20:53;;;;;;;0.98;0.68;;;11.40;99.90;;;14.45;55.88;97756.28;5042658;28;20052;-52
2022/12/26 12:23:59;;;;;;;2.03;0.93;;;11.50;99.90;;;14.54;55.74;97765.91;5042277;28;20051;-53
2022/12/26 12:27:02;;;;;;;1.87;0.90;;;11.60;99.90;;;14.54;55.66;97765.91;5042258;28;20306;-55
2022/12/26 12:29:50;;;;;;;0.70;0.70;;;11.50;99.90;;;14.52;55.79;97769.75;5042330;28;20071;-54
2022/12/26 12:32:41;;;;;;;1.30;0.80;;;11.40;99.90;;;14.48;55.48;97772.00;5024537;28;20055;-53
2022/12/26 12:35:56;;;;;;;1.15;0.70;;;11.50;99.90;;;14.40;55.55;97773.91;5042578;28;20381;-55
2022/12/26 12:39:19;;;;;;;2.30;1.40;;;11.50;99.90;;;14.29;55.30;97772.53;5039277;28;20343;-56
2022/12/26 12:42:27;;;;;;;1.30;0.80;;;11.40;99.90;;;14.46;55.45;97757.97;5026610;28;20064;-55
2022/12/26 12:45:46;;;;;;;1.40;0.90;;;11.50;99.90;;;14.47;55.34;97750.75;5034945;28;20100;-55
2022/12/26 12:48:45;;;;;;;1.23;1.02;;;11.40;99.90;;;14.38;55.23;97755.34;5037182;28;20054;-51
2022/12/26 12:51:37;;;;;;;1.20;1.08;;;11.40;99.90;;;14.46;55.69;97749.94;5037843;28;20051;-54
2022/12/26 12:54:20;;;;;;;1.97;1.17;;;11.40;99.90;;;14.49;55.24;97746.03;5026265;28;20049;-54
2022/12/26 12:57:14;;;;;;;1.23;1.03;;;11.40;99.90;;;14.46;55.24;97751.75;5035073;28;20254;-53
2022/12/26 13:00:15;;;;;;;1.45;1.10;;;11.40;99.90;;;14.50;55.20;97743.19;5042040;28;20041;-54